Terminal Aerodrome Forecast
Issued by NWS

Home | Current Version | Previous Version | Text Only | Print | Product List | Glossary On
Versions: 1 2 3 4 5 6 7 8 9 10 11 12
592
FTUS44 KLUB 230520
TAFCDS
TAF
KCDS 230520Z 2306/2406 15011KT P6SM FEW250 WS020/20050KT
     FM231700 18025G35KT P6SM FEW050 SCT250=

USA.gov is the U.S. government's official web portal to all federal, state and local government web resources and services.